Time;durP1;ratioP1;P1;durP2;ratioP2;P2;SDS_P1;SDS_P2;PMS_P1;PMS_P2;Temp;Humidity;BMP_temperature;BMP_pressure;BME280_temperature;BME280_humidity;BME280_pressure;Samples;Min_cycle;Max_cycle;Signal;HPM_P1;HPM_P2
2023/07/28 00:02:01;;;;;;;6.60;4.03;;;14.20;99.90;;;;;;4890240;29;20049;-66
2023/07/28 00:04:28;;;;;;;7.32;5.85;;;14.10;99.90;;;;;;4890820;29;20052;-66
2023/07/28 00:06:55;;;;;;;3.03;2.65;;;14.10;99.90;;;;;;4893164;29;20468;-67
2023/07/28 00:09:25;;;;;;;3.85;3.42;;;14.10;99.90;;;;;;4890585;29;20044;-66
2023/07/28 00:11:52;;;;;;;6.45;3.80;;;14.10;99.90;;;;;;4893070;29;20048;-66
2023/07/28 00:14:19;;;;;;;4.50;3.28;;;14.10;99.90;;;;;;4891259;29;20059;-67
2023/07/28 00:16:45;;;;;;;4.72;3.13;;;14.00;99.90;;;;;;4890789;29;20100;-65
2023/07/28 00:19:12;;;;;;;4.78;2.85;;;14.00;99.90;;;;;;4892824;29;20052;-65
2023/07/28 00:21:39;;;;;;;5.82;3.40;;;14.00;99.90;;;;;;4891531;29;20048;-66
2023/07/28 00:24:06;;;;;;;5.70;3.22;;;14.00;99.90;;;;;;4891721;29;20040;-67
2023/07/28 00:26:33;;;;;;;4.55;3.05;;;14.00;99.90;;;;;;4890972;29;20076;-66
2023/07/28 00:29:00;;;;;;;6.85;3.58;;;13.90;99.90;;;;;;4891864;29;20068;-67
2023/07/28 00:31:28;;;;;;;3.22;2.92;;;13.90;99.90;;;;;;4889419;29;20514;-65
2023/07/28 00:33:55;;;;;;;7.57;3.58;;;13.90;99.90;;;;;;4890704;29;20081;-66
2023/07/28 00:36:23;;;;;;;6.72;3.45;;;13.80;99.90;;;;;;4890352;29;20048;-68
2023/07/28 00:38:49;;;;;;;4.72;3.80;;;13.80;99.90;;;;;;4891005;29;20048;-66
2023/07/28 00:41:16;;;;;;;5.78;3.00;;;13.80;99.90;;;;;;4891872;29;20577;-65
2023/07/28 00:43:43;;;;;;;7.15;3.80;;;13.70;99.90;;;;;;4891862;29;20108;-67
2023/07/28 00:46:10;;;;;;;4.22;3.40;;;13.70;99.90;;;;;;4871431;29;20540;-66
2023/07/28 00:48:38;;;;;;;8.05;4.70;;;13.70;99.90;;;;;;4891216;29;20047;-65
2023/07/28 00:51:06;;;;;;;3.47;3.05;;;13.70;99.90;;;;;;4874104;29;20088;-67
2023/07/28 00:53:34;;;;;;;6.22;3.72;;;13.70;99.90;;;;;;4890505;29;20294;-66
2023/07/28 00:56:02;;;;;;;5.13;3.53;;;13.60;99.90;;;;;;4891648;29;20112;-66
2023/07/28 00:58:30;;;;;;;5.55;3.35;;;13.60;99.90;;;;;;4890794;29;20196;-65
2023/07/28 01:00:57;;;;;;;5.80;3.53;;;13.60;99.90;;;;;;4892617;29;20040;-66
2023/07/28 01:03:25;;;;;;;8.18;3.85;;;13.50;99.90;;;;;;4889121;29;20057;-67
2023/07/28 01:06:31;;;;;;;4.40;3.97;;;13.60;99.90;;;;;;4889680;29;20048;-66
2023/07/28 01:09:03;;;;;;;3.75;3.05;;;13.60;99.90;;;;;;4890201;29;20057;-68
2023/07/28 01:11:30;;;;;;;4.63;4.05;;;13.60;99.90;;;;;;4890859;29;20045;-65
2023/07/28 01:13:57;;;;;;;4.72;3.58;;;13.60;99.90;;;;;;4891889;29;20131;-66
2023/07/28 01:16:24;;;;;;;6.07;3.65;;;13.60;99.90;;;;;;4889412;29;20060;-66
2023/07/28 01:18:51;;;;;;;6.15;4.05;;;13.60;99.90;;;;;;4891786;29;20078;-66
2023/07/28 01:21:28;;;;;;;4.47;4.07;;;13.60;99.90;;;;;;4890015;29;20146;-66
2023/07/28 01:24:11;;;;;;;4.10;3.67;;;13.60;99.90;;;;;;4888498;29;20570;-66
2023/07/28 01:26:39;;;;;;;3.05;2.80;;;13.60;99.90;;;;;;4890860;29;20128;-66
2023/07/28 01:29:07;;;;;;;6.38;4.70;;;13.60;99.90;;;;;;4889632;29;20049;-65
2023/07/28 01:31:34;;;;;;;3.72;3.13;;;13.60;99.90;;;;;;4890715;29;20090;-65
2023/07/28 01:34:01;;;;;;;7.65;4.38;;;13.60;99.90;;;;;;4891282;29;20041;-67
2023/07/28 01:36:28;;;;;;;4.80;3.42;;;13.60;99.90;;;;;;4872592;29;20511;-67
2023/07/28 01:38:55;;;;;;;9.40;3.80;;;13.60;99.90;;;;;;4890270;29;20416;-66
2023/07/28 01:41:22;;;;;;;8.23;3.85;;;13.70;99.90;;;;;;4874236;29;20063;-66
2023/07/28 01:43:49;;;;;;;4.32;3.53;;;13.60;99.90;;;;;;4889380;29;20063;-67
2023/07/28 01:46:16;;;;;;;5.38;4.88;;;13.60;99.90;;;;;;4890329;29;20132;-66
2023/07/28 01:48:43;;;;;;;6.13;3.22;;;13.70;99.90;;;;;;4890207;29;20135;-66
2023/07/28 01:51:10;;;;;;;4.30;3.83;;;13.70;99.90;;;;;;4874271;29;20055;-66
2023/07/28 01:53:37;;;;;;;3.67;3.15;;;13.70;99.90;;;;;;4888856;29;20044;-66
2023/07/28 01:56:04;;;;;;;4.68;4.18;;;13.80;99.90;;;;;;4890743;29;20155;-66
2023/07/28 01:58:31;;;;;;;4.88;4.07;;;13.80;99.90;;;;;;4873484;29;20049;-65
2023/07/28 02:00:58;;;;;;;4.93;3.15;;;13.80;99.90;;;;;;4890727;29;20049;-65
2023/07/28 02:03:25;;;;;;;5.07;3.88;;;13.80;99.90;;;;;;4890216;29;20051;-66
2023/07/28 02:05:52;;;;;;;5.00;3.92;;;13.80;99.90;;;;;;4888824;29;20048;-66
2023/07/28 02:08:19;;;;;;;4.47;3.35;;;13.80;99.90;;;;;;4889996;29;20055;-66
2023/07/28 02:10:46;;;;;;;4.03;3.60;;;13.80;99.90;;;;;;4890715;29;20051;-66
2023/07/28 02:13:13;;;;;;;3.90;3.42;;;13.80;99.90;;;;;;4890091;29;20347;-66
2023/07/28 02:15:40;;;;;;;5.00;3.58;;;13.80;99.90;;;;;;4890524;29;20523;-65
2023/07/28 02:18:07;;;;;;;3.97;2.92;;;13.80;99.90;;;;;;4889813;29;20067;-67
2023/07/28 02:20:35;;;;;;;4.60;4.20;;;13.80;99.90;;;;;;4872773;29;20124;-66
2023/07/28 02:23:03;;;;;;;4.80;3.50;;;13.80;99.90;;;;;;4889051;29;20550;-66
2023/07/28 02:25:30;;;;;;;6.75;3.25;;;13.80;99.90;;;;;;4890039;29;20135;-65
2023/07/28 02:27:57;;;;;;;4.70;3.22;;;13.80;99.90;;;;;;4889520;29;20135;-67
2023/07/28 02:30:24;;;;;;;4.47;3.75;;;13.90;99.90;;;;;;4890153;29;20059;-65
2023/07/28 02:32:51;;;;;;;4.30;3.03;;;13.80;99.90;;;;;;4889534;29;20573;-66
2023/07/28 02:35:18;;;;;;;2.92;2.30;;;13.80;99.90;;;;;;4889122;29;20447;-66
2023/07/28 02:37:47;;;;;;;5.55;2.38;;;13.80;99.90;;;;;;4889280;29;20048;-66
2023/07/28 02:40:15;;;;;;;3.25;2.22;;;13.70;99.90;;;;;;4872550;29;20056;-66
2023/07/28 02:42:42;;;;;;;3.95;2.08;;;13.70;99.90;;;;;;4889144;29;20491;-65
2023/07/28 02:45:09;;;;;;;5.65;2.60;;;13.70;99.90;;;;;;4888877;29;20047;-66
2023/07/28 02:47:37;;;;;;;5.18;2.15;;;13.80;99.90;;;;;;4889785;29;20477;-67
2023/07/28 02:50:05;;;;;;;2.72;2.28;;;13.80;99.90;;;;;;4889223;29;20052;-66
2023/07/28 02:52:32;;;;;;;2.60;1.90;;;13.80;99.90;;;;;;4888712;29;20447;-66
2023/07/28 02:54:59;;;;;;;2.13;2.03;;;13.90;99.90;;;;;;4864413;29;20059;-67
2023/07/28 02:57:27;;;;;;;5.47;2.92;;;14.00;99.90;;;;;;4872454;29;20658;-67
2023/07/28 02:59:54;;;;;;;2.60;1.98;;;13.90;99.90;;;;;;4889092;29;20061;-65
2023/07/28 03:02:21;;;;;;;2.33;2.13;;;13.90;99.90;;;;;;4866980;29;20052;-66
2023/07/28 03:04:50;;;;;;;4.28;1.80;;;13.90;99.90;;;;;;4866800;29;20052;-66
2023/07/28 03:07:23;;;;;;;2.58;1.80;;;13.90;99.90;;;;;;4888676;29;20135;-66
2023/07/28 03:09:56;;;;;;;3.25;1.95;;;13.90;99.90;;;;;;4863464;29;20479;-66
2023/07/28 03:12:23;;;;;;;4.30;2.40;;;14.00;99.90;;;;;;4887066;29;20060;-66
2023/07/28 03:14:50;;;;;;;1.85;1.48;;;14.00;99.90;;;;;;4883506;29;20056;-65
2023/07/28 03:17:17;;;;;;;3.13;2.83;;;14.00;99.90;;;;;;4888352;29;20116;-65
2023/07/28 03:19:44;;;;;;;3.28;2.00;;;14.10;99.90;;;;;;4888068;29;20079;-65
2023/07/28 03:22:11;;;;;;;1.85;1.75;;;14.10;99.90;;;;;;4888098;29;20048;-66
2023/07/28 03:24:38;;;;;;;3.08;1.90;;;14.10;99.90;;;;;;4887660;29;20052;-66
2023/07/28 03:27:05;;;;;;;3.35;1.80;;;14.10;99.90;;;;;;4889034;29;20040;-65
2023/07/28 03:29:32;;;;;;;4.22;2.17;;;14.10;99.90;;;;;;4872064;29;20701;-66
2023/07/28 03:31:59;;;;;;;2.47;2.15;;;14.10;99.90;;;;;;4889381;29;20543;-67
2023/07/28 03:34:26;;;;;;;4.82;1.77;;;14.00;99.90;;;;;;4888567;29;20041;-65
2023/07/28 03:36:54;;;;;;;2.15;1.90;;;14.00;99.90;;;;;;4888793;29;20717;-66
2023/07/28 03:39:21;;;;;;;2.08;1.95;;;13.90;99.90;;;;;;4886449;29;20033;-66
2023/07/28 03:41:48;;;;;;;5.40;2.47;;;13.90;99.90;;;;;;4870812;29;20055;-66
2023/07/28 03:44:16;;;;;;;5.63;2.55;;;13.90;99.90;;;;;;4888952;29;20056;-67
2023/07/28 03:46:43;;;;;;;2.45;2.22;;;13.90;99.90;;;;;;4871747;29;20059;-66
2023/07/28 03:49:10;;;;;;;3.75;2.90;;;13.90;99.90;;;;;;4889105;29;20049;-66
2023/07/28 03:51:37;;;;;;;5.85;3.00;;;13.90;99.90;;;;;;4887307;29;20072;-66
2023/07/28 03:54:04;;;;;;;5.40;2.05;;;14.00;99.90;;;;;;4887172;29;20388;-66
2023/07/28 03:56:31;;;;;;;2.63;2.40;;;14.00;99.90;;;;;;4871319;29;20127;-66
2023/07/28 03:58:58;;;;;;;4.50;2.72;;;14.10;99.90;;;;;;4889460;29;20110;-66
2023/07/28 04:01:25;;;;;;;3.75;2.83;;;14.20;99.90;;;;;;4865059;29;20060;-66
2023/07/28 04:03:52;;;;;;;2.40;2.05;;;14.30;99.90;;;;;;4890422;29;20045;-67
2023/07/28 04:06:19;;;;;;;2.75;1.95;;;14.40;99.90;;;;;;4887927;29;20052;-65
2023/07/28 04:08:46;;;;;;;3.60;1.98;;;14.40;99.90;;;;;;4870133;29;20117;-66
2023/07/28 04:11:13;;;;;;;2.70;2.17;;;14.50;99.90;;;;;;4888466;29;20060;-66
2023/07/28 04:13:40;;;;;;;2.70;2.42;;;14.60;99.90;;;;;;4886759;29;20056;-70
2023/07/28 04:16:07;;;;;;;1.98;1.77;;;14.60;99.90;;;;;;4885684;29;20059;-68
2023/07/28 04:18:34;;;;;;;2.83;2.63;;;14.60;99.90;;;;;;4888712;29;20647;-65
2023/07/28 04:21:00;;;;;;;4.65;2.50;;;14.60;99.90;;;;;;4865665;29;20052;-66
2023/07/28 04:23:27;;;;;;;6.38;2.42;;;14.60;99.90;;;;;;4887670;29;20104;-67
2023/07/28 04:25:54;;;;;;;3.50;1.95;;;14.70;99.90;;;;;;4888115;29;20056;-68
2023/07/28 04:28:24;;;;;;;2.47;2.28;;;14.80;99.90;;;;;;4887711;29;20059;-65
2023/07/28 04:30:51;;;;;;;4.22;2.60;;;14.80;99.90;;;;;;4884646;29;20470;-66
2023/07/28 04:33:41;;;;;;;4.22;1.83;;;14.90;99.90;;;;;;4826351;29;20082;-67
2023/07/28 04:36:09;;;;;;;5.13;2.67;;;15.00;99.90;;;;;;4858305;29;20057;-66
2023/07/28 04:38:36;;;;;;;3.20;2.33;;;15.10;99.90;;;;;;4840627;29;20312;-65
2023/07/28 04:41:04;;;;;;;5.80;2.50;;;15.10;99.90;;;;;;4841854;29;20201;-66
2023/07/28 04:43:46;;;;;;;3.45;2.03;;;15.20;99.90;;;;;;4839724;29;20054;-66
2023/07/28 04:46:13;;;;;;;8.88;2.58;;;15.20;99.90;;;;;;4858284;29;20050;-66
2023/07/28 04:48:42;;;;;;;7.15;3.05;;;15.30;99.90;;;;;;4844584;29;20049;-68
2023/07/28 04:51:29;;;;;;;3.60;2.45;;;15.40;99.90;;;;;;4843649;29;20049;-67
2023/07/28 04:54:16;;;;;;;3.55;2.78;;;15.40;99.90;;;;;;4861383;29;20085;-65
2023/07/28 04:56:45;;;;;;;3.25;2.85;;;15.50;99.90;;;;;;4859807;29;20535;-66
2023/07/28 04:59:12;;;;;;;10.88;2.72;;;15.50;99.90;;;;;;4856907;29;20053;-67
2023/07/28 05:01:39;;;;;;;3.33;2.30;;;15.50;99.90;;;;;;4864981;29;20050;-65
2023/07/28 05:04:06;;;;;;;3.30;2.50;;;15.60;99.90;;;;;;4847392;29;20489;-67
2023/07/28 05:06:34;;;;;;;3.42;2.10;;;15.60;99.90;;;;;;4855722;29;20411;-67
2023/07/28 05:09:01;;;;;;;2.80;2.55;;;15.70;99.90;;;;;;4843571;29;20049;-66
2023/07/28 05:11:35;;;;;;;3.42;2.20;;;15.80;99.90;;;;;;4848967;29;20057;-66
2023/07/28 05:14:02;;;;;;;3.05;2.38;;;15.80;99.90;;;;;;4849969;29;20591;-66
2023/07/28 05:16:30;;;;;;;3.17;1.80;;;15.80;99.90;;;;;;4845674;29;20594;-66
2023/07/28 05:19:20;;;;;;;6.22;3.13;;;15.90;99.90;;;;;;4846415;29;20508;-66
2023/07/28 05:22:16;;;;;;;5.57;2.08;;;15.90;99.90;;;;;;4849581;29;20061;-67
2023/07/28 05:24:47;;;;;;;3.13;2.30;;;15.90;99.90;;;;;;4849124;29;20050;-66
2023/07/28 05:27:14;;;;;;;6.95;2.33;;;16.00;99.90;;;;;;4847245;29;20886;-66
2023/07/28 05:29:44;;;;;;;2.97;2.50;;;16.00;99.90;;;;;;4851104;29;20061;-66
2023/07/28 05:32:11;;;;;;;3.58;2.58;;;16.00;99.90;;;;;;4855934;29;20492;-66
2023/07/28 05:34:57;;;;;;;3.55;3.28;;;16.10;99.90;;;;;;4871326;29;20124;-67
2023/07/28 05:37:24;;;;;;;9.38;3.10;;;16.10;99.90;;;;;;4870118;29;20048;-67
2023/07/28 05:39:51;;;;;;;2.85;2.25;;;16.10;99.90;;;;;;4870233;29;20057;-67
2023/07/28 05:42:20;;;;;;;2.75;2.25;;;16.00;99.90;;;;;;4886416;29;20752;-66
2023/07/28 05:44:48;;;;;;;2.72;2.38;;;16.00;99.90;;;;;;4865720;29;20143;-65
2023/07/28 05:47:15;;;;;;;4.60;2.40;;;16.00;99.90;;;;;;4879881;29;20864;-66
2023/07/28 05:49:42;;;;;;;3.83;2.15;;;16.00;99.90;;;;;;4863666;29;20155;-67
2023/07/28 05:52:08;;;;;;;2.28;2.08;;;16.10;99.90;;;;;;4886506;29;20496;-66
2023/07/28 05:54:35;;;;;;;2.22;1.95;;;16.10;99.90;;;;;;4870740;29;20857;-67
2023/07/28 05:57:02;;;;;;;3.45;2.00;;;16.10;99.90;;;;;;4871925;29;20551;-67
2023/07/28 05:59:29;;;;;;;2.40;1.88;;;16.20;99.90;;;;;;4870788;29;20041;-67
2023/07/28 06:01:56;;;;;;;3.65;1.80;;;16.20;99.90;;;;;;4872187;29;20104;-67
2023/07/28 06:04:39;;;;;;;4.85;1.95;;;16.20;99.90;;;;;;4864560;29;20093;-66
2023/07/28 06:07:06;;;;;;;8.38;2.33;;;16.20;99.90;;;;;;4872369;29;20048;-66
2023/07/28 06:09:34;;;;;;;5.10;1.95;;;16.20;99.90;;;;;;4880137;29;20415;-67
2023/07/28 06:12:01;;;;;;;4.70;2.17;;;16.20;99.90;;;;;;4864919;29;20060;-67
2023/07/28 06:14:28;;;;;;;1.77;1.67;;;16.20;99.90;;;;;;4884234;29;20057;-66
2023/07/28 06:16:56;;;;;;;3.80;1.92;;;16.20;99.90;;;;;;4887071;29;20057;-67
2023/07/28 06:19:26;;;;;;;1.92;1.67;;;16.20;99.90;;;;;;4870343;29;20057;-66
2023/07/28 06:21:54;;;;;;;2.80;2.53;;;16.30;99.90;;;;;;4886372;29;20053;-65
2023/07/28 06:24:21;;;;;;;7.25;2.20;;;16.30;99.90;;;;;;4870165;29;20477;-66
2023/07/28 06:26:48;;;;;;;3.53;1.95;;;16.40;99.90;;;;;;4887140;29;20539;-66
2023/07/28 06:29:15;;;;;;;3.72;2.10;;;16.40;99.90;;;;;;4870926;29;20049;-66
2023/07/28 06:31:42;;;;;;;2.05;1.70;;;16.40;99.90;;;;;;4875471;29;20088;-68
2023/07/28 06:34:09;;;;;;;4.10;2.55;;;16.40;99.90;;;;;;4889751;29;20055;-66
2023/07/28 06:36:36;;;;;;;2.67;2.00;;;16.50;99.90;;;;;;4867772;29;20081;-66
2023/07/28 06:39:04;;;;;;;2.92;1.92;;;16.50;99.90;;;;;;4888186;29;20044;-67
2023/07/28 06:41:31;;;;;;;3.35;1.60;;;16.50;99.90;;;;;;4889779;29;20063;-67
2023/07/28 06:44:00;;;;;;;5.43;1.63;;;16.50;99.90;;;;;;4880923;29;20453;-66
2023/07/28 06:46:29;;;;;;;13.70;2.28;;;16.50;99.90;;;;;;4889062;29;20059;-68
2023/07/28 06:48:56;;;;;;;2.08;1.65;;;16.50;99.90;;;;;;4873158;29;20116;-67
2023/07/28 06:51:23;;;;;;;2.13;1.92;;;16.60;99.90;;;;;;4873515;29;20049;-66
2023/07/28 06:53:51;;;;;;;1.85;1.52;;;16.60;99.90;;;;;;4886663;29;20491;-66
2023/07/28 06:56:18;;;;;;;4.90;1.65;;;16.60;99.90;;;;;;4889740;29;20045;-66
2023/07/28 06:58:45;;;;;;;2.00;1.65;;;16.70;99.90;;;;;;4889870;29;20083;-66
2023/07/28 07:01:27;;;;;;;1.42;1.20;;;16.70;99.90;;;;;;4870911;29;20575;-66
2023/07/28 07:03:53;;;;;;;1.73;1.63;;;16.70;99.90;;;;;;4865105;29;20065;-66
2023/07/28 07:06:20;;;;;;;1.63;1.30;;;16.80;99.90;;;;;;4887404;29;20064;-68
2023/07/28 07:08:47;;;;;;;1.50;1.40;;;16.80;99.90;;;;;;4888869;29;20135;-65
2023/07/28 07:11:15;;;;;;;4.97;2.10;;;16.70;99.90;;;;;;4888980;29;20135;-66
2023/07/28 07:13:42;;;;;;;3.55;1.17;;;16.80;99.90;;;;;;4870970;29;20112;-66
2023/07/28 07:16:18;;;;;;;4.25;1.45;;;16.90;99.90;;;;;;4888297;29;20143;-67
2023/07/28 07:18:53;;;;;;;1.48;1.38;;;16.90;99.90;;;;;;4889803;29;20561;-67
2023/07/28 07:21:20;;;;;;;3.15;2.45;;;16.90;99.90;;;;;;4888475;29;20048;-67
2023/07/28 07:23:47;;;;;;;2.25;1.55;;;17.00;99.90;;;;;;4887692;29;20756;-66
2023/07/28 07:26:26;;;;;;;1.65;1.20;;;17.00;99.90;;;;;;4888300;29;20131;-67
2023/07/28 07:28:53;;;;;;;2.10;1.60;;;17.10;99.90;;;;;;4888158;29;20055;-67
2023/07/28 07:31:20;;;;;;;1.38;1.10;;;17.10;99.90;;;;;;4888463;29;20185;-66
2023/07/28 07:33:47;;;;;;;1.65;1.52;;;17.00;99.90;;;;;;4888153;29;20499;-66
2023/07/28 07:36:19;;;;;;;2.85;1.73;;;17.00;99.90;;;;;;4888405;29;20104;-66
2023/07/28 07:38:46;;;;;;;3.13;2.13;;;17.00;99.90;;;;;;4885339;29;20194;-67
2023/07/28 07:41:19;;;;;;;2.38;1.30;;;17.00;99.90;;;;;;4888768;29;20048;-66
2023/07/28 07:43:47;;;;;;;4.68;1.67;;;17.10;99.90;;;;;;4886897;29;20056;-66
2023/07/28 07:46:15;;;;;;;1.73;1.60;;;17.10;99.90;;;;;;4888745;29;20048;-66
2023/07/28 07:48:42;;;;;;;1.40;1.30;;;17.10;99.90;;;;;;4885738;29;20052;-66
2023/07/28 07:51:09;;;;;;;2.42;2.00;;;17.20;99.90;;;;;;4888900;29;20559;-67
2023/07/28 07:53:36;;;;;;;1.63;1.50;;;17.20;99.90;;;;;;4887021;29;20049;-66
2023/07/28 07:56:04;;;;;;;2.05;1.50;;;17.20;99.90;;;;;;4888170;29;20040;-66
2023/07/28 07:58:31;;;;;;;4.38;1.90;;;17.20;99.90;;;;;;4887970;29;20127;-65
2023/07/28 08:00:58;;;;;;;1.23;1.10;;;17.20;99.90;;;;;;4889613;29;20467;-67
2023/07/28 08:03:25;;;;;;;1.80;1.38;;;17.20;99.90;;;;;;4887081;29;20064;-65
2023/07/28 08:05:52;;;;;;;2.78;1.30;;;17.20;99.90;;;;;;4888355;29;20060;-66
2023/07/28 08:08:19;;;;;;;5.10;1.60;;;17.30;99.90;;;;;;4886193;29;20161;-66
2023/07/28 08:10:47;;;;;;;1.20;1.10;;;17.40;99.90;;;;;;4887695;29;20074;-66
2023/07/28 08:13:15;;;;;;;3.70;1.35;;;17.50;99.90;;;;;;4887505;29;20460;-66
2023/07/28 08:15:45;;;;;;;3.03;1.73;;;17.60;99.90;;;;;;4883106;29;20147;-66
2023/07/28 08:18:13;;;;;;;2.30;1.23;;;17.50;99.90;;;;;;4888385;29;20131;-66
2023/07/28 08:20:40;;;;;;;1.02;0.93;;;17.60;99.90;;;;;;4889136;29;20096;-67
2023/07/28 08:23:07;;;;;;;1.33;1.23;;;17.60;99.90;;;;;;4888775;29;20143;-68
2023/07/28 08:25:35;;;;;;;3.60;1.00;;;17.60;99.90;;;;;;4892944;29;20052;-65
2023/07/28 08:28:02;;;;;;;4.38;1.92;;;17.70;99.90;;;;;;4892056;29;20677;-67
2023/07/28 08:30:29;;;;;;;3.13;1.10;;;17.70;99.90;;;;;;4891917;29;20483;-68
2023/07/28 08:32:55;;;;;;;1.75;1.13;;;17.80;99.90;;;;;;4891339;29;20166;-66
2023/07/28 08:35:22;;;;;;;1.95;1.05;;;17.80;99.90;;;;;;4891304;29;20036;-67
2023/07/28 08:37:50;;;;;;;1.70;1.00;;;17.90;99.90;;;;;;4891372;29;21321;-67
2023/07/28 08:40:16;;;;;;;4.15;1.00;;;17.90;99.90;;;;;;4891654;29;20075;-67
2023/07/28 08:42:44;;;;;;;2.70;0.98;;;18.00;99.90;;;;;;4892583;29;20048;-66
2023/07/28 08:45:11;;;;;;;2.17;1.33;;;18.00;99.90;;;;;;4890707;29;20089;-67
2023/07/28 08:47:39;;;;;;;1.38;1.27;;;18.00;99.90;;;;;;4892807;29;20045;-67
2023/07/28 08:50:07;;;;;;;2.78;0.93;;;18.00;99.90;;;;;;4891476;29;20044;-66
2023/07/28 08:52:34;;;;;;;1.10;0.98;;;18.00;99.90;;;;;;4891355;29;20049;-68
2023/07/28 08:55:01;;;;;;;1.40;1.17;;;18.00;99.90;;;;;;4890344;29;20048;-67
2023/07/28 08:57:28;;;;;;;1.55;1.45;;;18.20;99.90;;;;;;4893196;29;20049;-67
2023/07/28 08:59:55;;;;;;;1.25;1.08;;;18.10;99.90;;;;;;4891045;29;20084;-68
2023/07/28 09:02:22;;;;;;;2.10;1.23;;;18.00;99.90;;;;;;4892270;29;20063;-66
2023/07/28 09:04:49;;;;;;;1.40;1.17;;;18.00;99.90;;;;;;4891106;29;20040;-67
2023/07/28 09:07:16;;;;;;;1.85;1.20;;;18.20;99.90;;;;;;4892004;29;20052;-67
2023/07/28 09:09:43;;;;;;;2.63;1.58;;;18.20;99.90;;;;;;4890558;29;20072;-66
2023/07/28 09:12:10;;;;;;;2.45;1.75;;;18.30;99.90;;;;;;4892458;29;20052;-66
2023/07/28 09:14:38;;;;;;;4.25;1.50;;;18.30;99.90;;;;;;4889995;29;20040;-67
2023/07/28 09:17:10;;;;;;;1.80;1.70;;;18.40;99.90;;;;;;4892134;29;20139;-67
2023/07/28 09:20:12;;;;;;;1.25;1.00;;;18.20;99.90;;;;;;4890367;29;20103;-66
2023/07/28 09:22:40;;;;;;;2.13;1.25;;;18.20;99.90;;;;;;4850946;29;20044;-65
2023/07/28 09:25:15;;;;;;;1.10;0.80;;;18.20;99.90;;;;;;4890841;29;20159;-67
2023/07/28 09:27:52;;;;;;;2.28;1.15;;;18.30;99.90;;;;;;4890705;29;20033;-66
2023/07/28 09:30:20;;;;;;;0.70;0.70;;;18.50;99.90;;;;;;4890968;29;20052;-67
2023/07/28 09:32:50;;;;;;;1.48;1.00;;;18.60;99.90;;;;;;4890593;29;20765;-65
2023/07/28 09:35:17;;;;;;;1.42;0.93;;;18.60;99.90;;;;;;4889627;29;20048;-66
2023/07/28 09:37:48;;;;;;;3.95;1.55;;;18.70;99.90;;;;;;4890250;29;20112;-68
2023/07/28 09:40:21;;;;;;;1.65;0.90;;;18.70;99.90;;;;;;4890980;29;20036;-66
2023/07/28 09:42:49;;;;;;;4.53;1.58;;;18.70;99.90;;;;;;4890593;29;20053;-66
2023/07/28 09:45:21;;;;;;;2.83;1.17;;;18.60;99.90;;;;;;4890156;29;20203;-66
2023/07/28 09:48:09;;;;;;;1.50;1.10;;;18.60;99.90;;;;;;4888124;29;20060;-67
2023/07/28 09:50:38;;;;;;;1.05;0.95;;;18.60;99.90;;;;;;4890731;29;20053;-66
2023/07/28 09:53:09;;;;;;;1.08;0.80;;;18.80;99.90;;;;;;4889569;29;20068;-66
2023/07/28 09:55:40;;;;;;;1.67;1.40;;;18.70;99.90;;;;;;4890834;29;20407;-67
2023/07/28 09:58:12;;;;;;;1.25;1.15;;;18.70;99.90;;;;;;4889616;29;20048;-67
2023/07/28 10:00:40;;;;;;;1.15;0.70;;;18.80;99.90;;;;;;4891550;29;20459;-68
2023/07/28 10:03:09;;;;;;;1.08;0.98;;;18.90;99.90;;;;;;4889263;29;20491;-66
2023/07/28 10:05:37;;;;;;;4.90;1.08;;;18.90;99.90;;;;;;4890433;29;20072;-68
2023/07/28 10:08:05;;;;;;;1.65;1.10;;;18.90;99.90;;;;;;4889408;29;20051;-66
2023/07/28 10:10:32;;;;;;;1.08;0.98;;;18.80;99.90;;;;;;4890637;29;20128;-66
2023/07/28 10:13:00;;;;;;;0.88;0.88;;;18.90;99.90;;;;;;4890431;29;20052;-67
2023/07/28 10:15:32;;;;;;;1.77;1.02;;;18.90;99.90;;;;;;4888910;29;20055;-65
2023/07/28 10:17:59;;;;;;;1.20;1.02;;;18.80;99.90;;;;;;4888602;29;20056;-66
2023/07/28 10:20:34;;;;;;;2.88;1.52;;;18.70;99.90;;;;;;4890746;29;20048;-66
2023/07/28 10:23:14;;;;;;;1.23;1.13;;;18.90;99.90;;;;;;4888414;29;20738;-68
2023/07/28 10:25:43;;;;;;;1.45;1.33;;;19.20;99.90;;;;;;4889154;29;20176;-65
2023/07/28 10:28:34;;;;;;;1.17;1.08;;;19.20;99.90;;;;;;4890109;29;20049;-67
2023/07/28 10:31:02;;;;;;;2.92;0.98;;;19.20;99.90;;;;;;4888696;29;20108;-67
2023/07/28 10:33:41;;;;;;;1.35;0.98;;;19.20;99.90;;;;;;4889880;29;20064;-67
2023/07/28 10:36:36;;;;;;;1.38;1.10;;;19.10;99.90;;;;;;4889262;29;20124;-66
2023/07/28 10:39:17;;;;;;;1.25;0.90;;;19.10;99.90;;;;;;4888640;29;20048;-66
2023/07/28 10:42:10;;;;;;;1.40;1.05;;;19.20;99.90;;;;;;4890445;29;20095;-66
2023/07/28 10:44:37;;;;;;;1.80;1.48;;;19.30;99.90;;;;;;4887540;29;20139;-67
2023/07/28 10:47:11;;;;;;;6.68;1.38;;;19.20;99.90;;;;;;4889137;29;20052;-67
2023/07/28 10:49:38;;;;;;;2.13;1.63;;;19.30;99.90;;;;;;4888694;29;20060;-66
2023/07/28 10:52:05;;;;;;;1.48;1.33;;;19.40;99.90;;;;;;4889978;29;20116;-66
2023/07/28 10:54:33;;;;;;;1.23;1.13;;;19.50;99.90;;;;;;4888483;29;20143;-66
2023/07/28 10:57:03;;;;;;;3.00;1.35;;;19.70;99.90;;;;;;4889671;29;20097;-67
2023/07/28 10:59:35;;;;;;;1.50;1.40;;;19.50;99.90;;;;;;4888989;29;20052;-67
2023/07/28 11:02:01;;;;;;;3.15;1.33;;;19.30;99.90;;;;;;4889973;29;20108;-67
2023/07/28 11:04:28;;;;;;;0.90;0.90;;;19.40;99.90;;;;;;4888198;29;20044;-67
2023/07/28 11:06:55;;;;;;;2.05;1.38;;;19.50;99.90;;;;;;4890282;29;20044;-67
2023/07/28 11:09:26;;;;;;;1.77;1.00;;;19.50;99.90;;;;;;4885753;29;20045;-66
2023/07/28 11:11:53;;;;;;;;;;;19.60;99.90;;;;;;4891148;29;20067;-66
2023/07/28 11:14:20;;;;;;;4.07;1.80;;;19.50;99.90;;;;;;4888493;29;19927;-65
2023/07/28 11:16:47;;;;;;;1.98;1.05;;;19.60;99.90;;;;;;4889233;29;20060;-68
2023/07/28 11:19:17;;;;;;;3.08;1.10;;;19.60;99.90;;;;;;4888099;29;20506;-68
2023/07/28 11:21:50;;;;;;;0.98;0.85;;;19.80;99.90;;;;;;4889578;29;20044;-66
2023/07/28 11:24:21;;;;;;;2.13;1.40;;;19.80;99.90;;;;;;4886163;29;20044;-66
2023/07/28 11:26:49;;;;;;;1.92;1.15;;;19.80;99.90;;;;;;4889787;29;20062;-66
2023/07/28 11:29:17;;;;;;;1.48;1.38;;;19.60;99.90;;;;;;4886790;29;20076;-67
2023/07/28 11:31:44;;;;;;;1.90;1.80;;;19.60;99.90;;;;;;4889705;29;20067;-67
2023/07/28 11:34:18;;;;;;;4.85;2.53;;;19.50;99.90;;;;;;4884449;29;20128;-66
2023/07/28 11:36:45;;;;;;;2.35;2.03;;;19.50;99.90;;;;;;4889147;29;20407;-67
2023/07/28 11:39:14;;;;;;;4.30;1.83;;;19.60;99.90;;;;;;4886202;29;20120;-66
2023/07/28 11:41:42;;;;;;;5.88;2.08;;;19.80;99.90;;;;;;4889919;29;20068;-66
2023/07/28 11:44:09;;;;;;;3.58;1.83;;;19.90;99.90;;;;;;4886847;29;20041;-65
2023/07/28 11:46:41;;;;;;;1.67;1.58;;;20.00;99.90;;;;;;4888828;29;20132;-66
2023/07/28 11:49:22;;;;;;;3.25;1.50;;;19.80;99.90;;;;;;4887850;29;20570;-67
2023/07/28 11:51:51;;;;;;;2.05;1.75;;;19.90;99.90;;;;;;4889358;29;20050;-68
2023/07/28 11:54:23;;;;;;;4.32;2.13;;;20.00;99.90;;;;;;4887921;29;20056;-66
2023/07/28 11:56:53;;;;;;;4.45;2.38;;;20.00;99.90;;;;;;4889199;29;20055;-66
2023/07/28 11:59:21;;;;;;;2.67;2.47;;;20.00;99.90;;;;;;4892524;29;20040;-66
2023/07/28 12:01:59;;;;;;;2.28;1.40;;;20.10;99.90;;;;;;4892454;29;20080;-66
2023/07/28 12:04:31;;;;;;;3.40;1.85;;;20.10;99.90;;;;;;4875588;29;20487;-66
2023/07/28 12:07:06;;;;;;;2.17;1.65;;;20.20;99.90;;;;;;4893240;29;20542;-67
2023/07/28 12:09:46;;;;;;;2.33;2.13;;;20.20;99.90;;;;;;4889010;29;20048;-67
2023/07/28 12:12:14;;;;;;;2.63;2.00;;;20.20;99.90;;;;;;4892976;29;20049;-68
2023/07/28 12:14:48;;;;;;;2.55;1.77;;;20.30;99.90;;;;;;4892359;29;20475;-66
2023/07/28 12:17:36;;;;;;;2.58;1.77;;;20.20;99.90;;;;;;4891741;29;20387;-66
2023/07/28 12:20:14;;;;;;;3.45;1.40;;;20.40;99.90;;;;;;4890518;29;20052;-67
2023/07/28 12:22:43;;;;;;;1.58;1.48;;;20.40;99.90;;;;;;4891789;29;20128;-65
2023/07/28 12:25:11;;;;;;;2.40;2.08;;;20.40;99.90;;;;;;4892239;29;20108;-67
2023/07/28 12:27:38;;;;;;;1.73;1.63;;;20.40;99.90;;;;;;4891507;29;20052;-66
2023/07/28 12:30:08;;;;;;;3.85;1.80;;;20.30;99.90;;;;;;4892467;29;20052;-68
2023/07/28 12:32:43;;;;;;;3.88;1.90;;;20.40;99.90;;;;;;4890099;29;20159;-67
2023/07/28 12:35:34;;;;;;;2.58;1.55;;;20.40;99.90;;;;;;4891889;29;20053;-65
2023/07/28 12:38:05;;;;;;;1.40;1.30;;;20.40;99.90;;;;;;4890649;29;20768;-65
2023/07/28 12:40:35;;;;;;;4.93;2.05;;;20.40;99.90;;;;;;4893218;29;20117;-66
2023/07/28 12:43:04;;;;;;;3.80;1.30;;;20.50;99.90;;;;;;4892274;29;20112;-66
2023/07/28 12:45:33;;;;;;;2.45;1.58;;;20.50;99.90;;;;;;4890005;29;20423;-66
2023/07/28 12:48:03;;;;;;;2.05;1.52;;;20.50;99.90;;;;;;4891076;29;20076;-66
2023/07/28 12:50:30;;;;;;;2.65;1.45;;;20.60;99.90;;;;;;4892111;29;20084;-67
2023/07/28 12:53:07;;;;;;;2.25;2.05;;;20.70;99.90;;;;;;4889914;29;20049;-67
2023/07/28 12:55:43;;;;;;;1.85;1.33;;;21.10;99.90;;;;;;4890768;29;20044;-66
2023/07/28 12:58:13;;;;;;;2.42;1.63;;;21.20;99.90;;;;;;4891670;29;20058;-66
2023/07/28 13:00:44;;;;;;;2.20;2.00;;;21.20;99.90;;;;;;4891199;29;20117;-66